AXB27E VOMM-VOBL
Flight info
| Callsign | AXB27E |
|---|---|
| Flight time | N/A |
| Altitude | 20000 |
| Route | XIVIL2A/07 MMV W117 BIA |
| Aircraft | B738/M-SDE2E3FGHIRWXY/LB1 |
Departure
| Time | 2026-05-08 08:46 |
|---|---|
| Airport | Chennai International Airport (VOMM) |
Arrival
| Time | N/A |
|---|---|
| Airport | Kempegowda International Airport Bengaluru (VOBL) |
| Time | Latitude | Longitude | Altitude | Speed | Heading |
|---|---|---|---|---|---|
| 2026-05-08 08:46 | 13.05029 | 80.01294 | 13091 ft | 290 kts | 284° |
| 2026-05-08 08:46 | 13.05424 | 79.99444 | 13547 ft | 296 kts | 284° |
| 2026-05-08 08:46 | 13.05857 | 79.97480 | 14087 ft | 298 kts | 285° |
| 2026-05-08 08:46 | 13.06332 | 79.95380 | 14630 ft | 301 kts | 285° |
| 2026-05-08 08:47 | 13.06794 | 79.93376 | 15128 ft | 304 kts | 285° |
| 2026-05-08 08:47 | 13.07247 | 79.91438 | 15595 ft | 307 kts | 286° |
| 2026-05-08 08:47 | 13.07705 | 79.89501 | 16304 ft | 300 kts | 286° |
| 2026-05-08 08:47 | 13.08168 | 79.87511 | 17207 ft | 288 kts | 286° |
| 2026-05-08 08:48 | 13.08616 | 79.85571 | 18113 ft | 277 kts | 286° |
| 2026-05-08 08:48 | 13.09037 | 79.83721 | 19017 ft | 266 kts | 286° |
| 2026-05-08 08:48 | 13.09438 | 79.81927 | 19886 ft | 256 kts | 286° |
| 2026-05-08 08:48 | 13.09840 | 79.80128 | 20131 ft | 273 kts | 286° |
| 2026-05-08 08:49 | 13.10280 | 79.78169 | 20117 ft | 297 kts | 285° |
| 2026-05-08 08:49 | 13.10751 | 79.76056 | 20109 ft | 316 kts | 285° |
| 2026-05-08 08:49 | 13.11243 | 79.73834 | 20103 ft | 330 kts | 285° |
| 2026-05-08 08:49 | 13.11760 | 79.71500 | 20101 ft | 342 kts | 285° |
| 2026-05-08 08:50 | 13.12286 | 79.69120 | 20100 ft | 351 kts | 285° |
| 2026-05-08 08:50 | 13.12830 | 79.66658 | 20100 ft | 357 kts | 285° |
| 2026-05-08 08:50 | 13.13385 | 79.64144 | 20100 ft | 363 kts | 285° |
| 2026-05-08 08:50 | 13.13942 | 79.61623 | 20100 ft | 366 kts | 285° |
| 2026-05-08 08:51 | 13.14502 | 79.59087 | 20099 ft | 369 kts | 285° |
| 2026-05-08 08:51 | 13.15069 | 79.56525 | 20100 ft | 371 kts | 285° |
| 2026-05-08 08:51 | 13.15641 | 79.53933 | 20100 ft | 373 kts | 285° |
| 2026-05-08 08:51 | 13.16204 | 79.51390 | 20100 ft | 374 kts | 285° |
| 2026-05-08 08:52 | 13.16781 | 79.48779 | 20100 ft | 375 kts | 285° |
| 2026-05-08 08:52 | 13.17351 | 79.46203 | 20100 ft | 376 kts | 285° |
| 2026-05-08 08:52 | 13.17926 | 79.43606 | 20101 ft | 376 kts | 285° |
| 2026-05-08 08:52 | 13.18511 | 79.40963 | 20100 ft | 377 kts | 285° |
| 2026-05-08 08:53 | 13.19087 | 79.38364 | 20101 ft | 377 kts | 285° |
| 2026-05-08 08:53 | 13.19667 | 79.35745 | 20101 ft | 377 kts | 285° |
| 2026-05-08 08:53 | 13.20200 | 79.33337 | 20101 ft | 377 kts | 284° |
| 2026-05-08 08:53 | 13.20802 | 79.30626 | 20100 ft | 377 kts | 284° |
| 2026-05-08 08:54 | 13.21375 | 79.28044 | 20101 ft | 377 kts | 284° |
| 2026-05-08 08:54 | 13.21962 | 79.25403 | 20100 ft | 377 kts | 284° |
| 2026-05-08 08:54 | 13.22540 | 79.22800 | 20101 ft | 377 kts | 284° |
| 2026-05-08 08:54 | 13.23117 | 79.20205 | 20101 ft | 377 kts | 284° |
| 2026-05-08 08:55 | 13.23700 | 79.17586 | 20101 ft | 377 kts | 285° |
| 2026-05-08 08:55 | 13.24277 | 79.14990 | 20101 ft | 377 kts | 284° |
| 2026-05-08 08:55 | 13.24853 | 79.12404 | 20101 ft | 377 kts | 284° |
| 2026-05-08 08:55 | 13.25433 | 79.09802 | 20101 ft | 377 kts | 284° |
| 2026-05-08 08:56 | 13.26020 | 79.07164 | 20101 ft | 376 kts | 284° |
| 2026-05-08 08:56 | 13.26594 | 79.04593 | 20101 ft | 376 kts | 284° |
| 2026-05-08 08:56 | 13.27178 | 79.01971 | 20101 ft | 376 kts | 284° |
| 2026-05-08 08:56 | 13.27664 | 78.99795 | 20101 ft | 376 kts | 284° |